createdAt,value
2023-02-16T00:01:17.770Z,75.50
2023-02-16T00:03:47.436Z,71.63
2023-02-16T00:06:17.242Z,76.53
2023-02-16T00:08:49.710Z,62.72
2023-02-16T00:11:38.681Z,56.58
2023-02-16T00:14:11.095Z,86.65
2023-02-16T00:16:40.485Z,71.15
2023-02-16T00:19:21.367Z,67.78
2023-02-16T00:21:51.517Z,80.90
2023-02-16T00:26:51.181Z,71.15
2023-02-16T00:29:25.915Z,54.38
2023-02-16T00:31:55.872Z,80.00
2023-02-16T00:34:33.726Z,68.53
2023-02-16T00:37:04.619Z,74.68
2023-02-16T00:39:35.912Z,64.22
2023-02-16T00:42:06.633Z,58.28
2023-02-16T00:44:39.121Z,61.95
2023-02-16T00:47:20.269Z,64.80
2023-02-16T00:49:49.468Z,49.45
2023-02-16T00:52:29.532Z,51.38
2023-02-16T00:55:00.979Z,73.95
2023-02-16T00:57:34.137Z,51.03
2023-02-16T01:00:07.586Z,76.28
2023-02-16T01:02:36.899Z,80.72
2023-02-16T01:05:06.943Z,57.03
2023-02-16T01:07:53.007Z,86.60
2023-02-16T01:10:40.870Z,70.63
2023-02-16T01:13:10.111Z,77.20
2023-02-16T01:15:40.131Z,71.78
2023-02-16T01:18:09.501Z,84.78
2023-02-16T01:20:38.534Z,84.73
2023-02-16T01:23:10.889Z,80.30
2023-02-16T01:25:44.555Z,81.25
2023-02-16T01:28:20.837Z,80.05
2023-02-16T01:30:50.207Z,80.93
2023-02-16T01:33:19.504Z,81.37
2023-02-16T01:35:48.676Z,74.47
2023-02-16T01:38:20.149Z,85.50
2023-02-16T01:40:57.342Z,79.53
2023-02-16T01:43:30.498Z,74.15
2023-02-16T01:46:05.832Z,71.85
2023-02-16T01:48:34.965Z,78.20
2023-02-16T01:51:07.921Z,84.18
2023-02-16T01:53:41.904Z,57.25
2023-02-16T01:56:19.605Z,69.68
2023-02-16T01:58:50.104Z,55.35
2023-02-16T02:01:44.268Z,67.75
2023-02-16T02:04:36.790Z,82.28
2023-02-16T02:07:05.886Z,78.38
2023-02-16T02:09:40.827Z,70.93
2023-02-16T02:12:16.971Z,72.35
2023-02-16T02:14:46.028Z,72.32
2023-02-16T02:17:19.895Z,76.15
2023-02-16T02:19:57.633Z,74.13
2023-02-16T02:23:10.329Z,81.63
2023-02-16T02:26:12.844Z,84.22
2023-02-16T02:28:49.915Z,76.13
2023-02-16T02:31:27.215Z,70.45
2023-02-16T02:34:06.249Z,59.20
2023-02-16T02:36:37.965Z,80.55
2023-02-16T02:39:15.877Z,68.20
2023-02-16T02:42:06.218Z,73.93
2023-02-16T02:44:48.571Z,81.78
2023-02-16T02:47:19.683Z,76.55
2023-02-16T02:49:53.473Z,67.97
2023-02-16T02:52:23.145Z,77.25
2023-02-16T02:55:09.794Z,81.65
2023-02-16T02:58:00.397Z,73.30
2023-02-16T03:00:46.977Z,83.72
2023-02-16T03:03:21.229Z,72.20
2023-02-16T03:05:53.615Z,65.32
2023-02-16T03:08:25.756Z,55.08
2023-02-16T03:11:13.808Z,55.33
2023-02-16T03:13:45.007Z,69.05
2023-02-16T03:16:18.631Z,67.18
2023-02-16T03:19:05.835Z,63.03
2023-02-16T03:21:53.706Z,70.60
2023-02-16T03:24:43.502Z,42.58
2023-02-16T03:27:31.131Z,71.15
2023-02-16T03:30:01.649Z,81.03
2023-02-16T03:32:32.452Z,79.38
2023-02-16T03:35:01.698Z,70.18
2023-02-16T03:37:30.475Z,77.65
2023-02-16T03:40:16.729Z,58.20
2023-02-16T03:42:50.955Z,75.10
2023-02-16T03:45:21.035Z,66.93
2023-02-16T03:47:51.760Z,70.30
2023-02-16T03:50:20.965Z,74.38
2023-02-16T03:52:50.210Z,84.70
2023-02-16T03:55:19.676Z,73.45
2023-02-16T03:57:48.858Z,58.80
2023-02-16T04:00:18.521Z,76.88
2023-02-16T04:02:47.806Z,63.78
2023-02-16T04:05:18.444Z,59.17
2023-02-16T04:10:15.969Z,61.45
2023-02-16T04:12:44.651Z,50.90
2023-02-16T04:15:16.624Z,69.18
2023-02-16T04:17:46.226Z,63.85
2023-02-16T04:20:19.364Z,78.22
2023-02-16T04:22:48.511Z,62.75
2023-02-16T04:25:18.710Z,71.93
2023-02-16T04:27:48.427Z,69.28
2023-02-16T04:30:20.128Z,75.00
2023-02-16T04:32:49.616Z,81.15
2023-02-16T04:35:21.211Z,71.93
2023-02-16T04:37:49.998Z,78.82
2023-02-16T04:40:19.626Z,61.60
2023-02-16T04:42:50.136Z,73.15
2023-02-16T04:45:19.554Z,71.38
2023-02-16T04:47:48.738Z,59.50
2023-02-16T04:50:19.460Z,55.83
2023-02-16T04:52:48.212Z,73.95
2023-02-16T04:55:17.465Z,65.80
2023-02-16T04:57:46.912Z,69.97
2023-02-16T05:00:16.597Z,68.87
2023-02-16T05:02:45.920Z,75.65
2023-02-16T05:05:15.834Z,77.50
2023-02-16T05:07:46.401Z,67.17
2023-02-16T05:10:15.639Z,67.25
2023-02-16T05:13:02.175Z,61.72
2023-02-16T05:15:31.294Z,79.70
2023-02-16T05:18:00.558Z,49.20
2023-02-16T05:20:43.451Z,67.57
2023-02-16T05:23:14.050Z,66.82
2023-02-16T05:25:43.092Z,74.25
2023-02-16T05:28:12.254Z,54.20
2023-02-16T05:30:41.511Z,67.38
2023-02-16T05:33:10.611Z,51.77
2023-02-16T05:35:39.758Z,64.05
2023-02-16T05:38:08.941Z,54.83
2023-02-16T05:40:39.153Z,73.65
2023-02-16T05:43:08.336Z,59.38
2023-02-16T05:45:37.424Z,76.68
2023-02-16T05:48:07.248Z,72.35
2023-02-16T05:50:36.676Z,58.15
2023-02-16T05:53:05.808Z,68.83
2023-02-16T05:55:34.651Z,63.38
2023-02-16T05:58:05.249Z,66.82
2023-02-16T06:00:36.019Z,61.45
2023-02-16T06:03:05.445Z,64.50
2023-02-16T06:05:34.504Z,55.97
2023-02-16T06:08:03.805Z,70.00
2023-02-16T06:10:32.481Z,65.97
2023-02-16T06:13:01.604Z,69.80
2023-02-16T06:15:32.087Z,70.38
2023-02-16T06:18:02.390Z,68.03
2023-02-16T06:20:32.512Z,68.10
2023-02-16T06:25:30.000Z,66.22
2023-02-16T06:27:59.133Z,46.92
2023-02-16T06:30:28.406Z,62.03
2023-02-16T06:32:59.059Z,52.37
2023-02-16T06:35:28.307Z,62.35
2023-02-16T06:37:57.094Z,61.55
2023-02-16T06:40:26.118Z,63.35
2023-02-16T06:42:55.177Z,64.80
2023-02-16T06:45:24.319Z,62.42
2023-02-16T06:47:53.376Z,60.15
2023-02-16T06:50:24.032Z,63.97
2023-02-16T06:52:52.774Z,62.17
2023-02-16T06:55:21.947Z,53.55
2023-02-16T06:57:51.140Z,51.65
2023-02-16T07:00:20.928Z,65.40
2023-02-16T07:02:50.144Z,63.65
2023-02-16T07:05:19.797Z,63.90
2023-02-16T07:07:49.985Z,60.53
2023-02-16T07:10:20.349Z,61.47
2023-02-16T07:12:49.979Z,60.58
2023-02-16T07:15:19.820Z,56.20
2023-02-16T07:17:49.230Z,58.38
2023-02-16T07:20:18.904Z,58.95
2023-02-16T07:22:50.284Z,55.72
2023-02-16T07:25:20.988Z,56.78
2023-02-16T07:27:51.215Z,56.55
2023-02-16T07:30:21.109Z,56.88
2023-02-16T07:32:50.304Z,55.33
2023-02-16T07:35:19.639Z,59.38
2023-02-16T07:37:48.380Z,57.50
2023-02-16T07:40:17.546Z,57.75
2023-02-16T07:42:48.040Z,59.67
2023-02-16T07:45:17.332Z,59.58
2023-02-16T07:47:46.581Z,60.60
2023-02-16T07:50:16.656Z,58.33
2023-02-16T07:52:45.338Z,63.63
2023-02-16T07:55:14.477Z,60.88
2023-02-16T07:57:43.580Z,60.30
2023-02-16T08:00:14.992Z,56.88
2023-02-16T08:02:44.360Z,57.40
2023-02-16T08:05:13.452Z,58.97
2023-02-16T08:07:43.453Z,59.90
2023-02-16T08:10:13.977Z,58.00
2023-02-16T08:12:45.200Z,58.60
2023-02-16T08:15:15.515Z,59.53
2023-02-16T08:20:14.421Z,56.13
2023-02-16T08:22:43.661Z,54.90
2023-02-16T08:25:16.158Z,56.67
2023-02-16T08:27:45.212Z,53.83
2023-02-16T08:30:18.383Z,56.78
2023-02-16T08:32:50.976Z,54.90
2023-02-16T08:35:20.554Z,55.15
2023-02-16T08:37:49.251Z,53.30
2023-02-16T08:40:18.701Z,50.08
2023-02-16T08:42:47.729Z,51.72
2023-02-16T08:45:18.537Z,50.45
2023-02-16T08:47:48.955Z,47.42
2023-02-16T08:50:19.138Z,50.78
2023-02-16T08:52:49.107Z,47.85
2023-02-16T08:57:47.651Z,50.78
2023-02-16T09:00:38.776Z,49.05
2023-02-16T09:03:08.370Z,48.10
2023-02-16T09:05:37.411Z,49.23
2023-02-16T09:08:06.913Z,48.20
2023-02-16T09:10:35.598Z,48.38
2023-02-16T09:13:05.459Z,47.65
2023-02-16T09:15:38.391Z,44.75
2023-02-16T09:18:09.244Z,49.33
2023-02-16T09:20:39.473Z,46.00
2023-02-16T09:23:09.350Z,50.70
2023-02-16T09:25:38.947Z,48.17
2023-02-16T09:28:09.656Z,42.75
2023-02-16T09:30:40.623Z,47.60
2023-02-16T09:33:10.039Z,47.78
2023-02-16T09:35:40.910Z,45.50
2023-02-16T09:38:10.967Z,48.28
2023-02-16T09:40:39.696Z,47.15
2023-02-16T09:43:13.624Z,46.13
2023-02-16T09:45:45.231Z,46.17
2023-02-16T09:48:23.464Z,47.22
2023-02-16T09:50:55.266Z,47.20
2023-02-16T09:53:29.815Z,49.40
2023-02-16T09:56:04.217Z,47.83
2023-02-16T09:58:41.327Z,46.97
2023-02-16T10:01:19.549Z,45.20
2023-02-16T10:03:56.682Z,47.15
2023-02-16T10:06:40.541Z,48.42
2023-02-16T10:09:13.450Z,48.03
2023-02-16T10:11:48.901Z,46.28
2023-02-16T10:14:25.484Z,46.97
2023-02-16T10:16:59.211Z,48.05
2023-02-16T10:19:31.062Z,46.20
2023-02-16T10:22:02.403Z,45.50
2023-02-16T10:24:43.380Z,46.03
2023-02-16T10:27:15.365Z,47.47
2023-02-16T10:29:44.443Z,46.85
2023-02-16T10:32:27.121Z,45.30
2023-02-16T10:35:04.741Z,44.90
2023-02-16T10:37:57.971Z,44.63
2023-02-16T10:40:35.977Z,44.65
2023-02-16T10:43:08.764Z,44.00
2023-02-16T10:45:42.876Z,47.40
2023-02-16T10:48:13.740Z,45.25
2023-02-16T10:50:45.102Z,47.80
2023-02-16T10:53:17.651Z,46.55
2023-02-16T10:55:46.532Z,46.47
2023-02-16T10:58:18.836Z,49.17
2023-02-16T11:00:54.168Z,48.03
2023-02-16T11:03:27.392Z,46.90
2023-02-16T11:05:56.543Z,45.63
2023-02-16T11:08:30.095Z,44.90
2023-02-16T11:10:58.929Z,46.47
2023-02-16T11:13:31.499Z,46.13
2023-02-16T11:16:02.974Z,43.50
2023-02-16T11:18:38.418Z,43.13
2023-02-16T11:21:08.487Z,42.88
2023-02-16T11:23:39.140Z,43.63
2023-02-16T11:26:13.986Z,41.75
2023-02-16T11:28:44.984Z,42.20
2023-02-16T11:31:17.848Z,43.13
2023-02-16T11:33:59.342Z,42.22
2023-02-16T11:36:33.381Z,42.78
2023-02-16T11:39:05.221Z,41.95
2023-02-16T11:41:35.149Z,41.78
2023-02-16T11:44:04.633Z,43.08
2023-02-16T11:46:41.894Z,42.75
2023-02-16T11:49:30.384Z,42.60
2023-02-16T11:51:59.504Z,45.05
2023-02-16T11:54:28.810Z,42.13
2023-02-16T11:57:09.389Z,43.20
2023-02-16T11:59:40.785Z,39.35
2023-02-16T12:02:32.530Z,40.90
2023-02-16T12:05:25.132Z,41.13
2023-02-16T12:08:22.498Z,39.78
2023-02-16T12:11:03.589Z,38.10
2023-02-16T12:13:37.839Z,38.65
2023-02-16T12:16:19.541Z,37.85
2023-02-16T12:18:57.785Z,39.55
2023-02-16T12:21:38.058Z,37.47
2023-02-16T12:24:15.070Z,36.60
2023-02-16T12:26:48.744Z,37.03
2023-02-16T12:29:26.066Z,36.53
2023-02-16T12:32:08.512Z,38.83
2023-02-16T12:34:46.572Z,37.90
2023-02-16T12:37:23.995Z,34.40
2023-02-16T12:39:59.019Z,40.00
2023-02-16T12:42:43.062Z,37.03
2023-02-16T12:45:16.241Z,36.53
2023-02-16T12:47:47.771Z,37.67
2023-02-16T12:50:20.617Z,36.40
2023-02-16T12:52:54.195Z,36.72
2023-02-16T12:55:27.274Z,35.20
2023-02-16T12:58:04.237Z,37.17
2023-02-16T13:00:41.908Z,37.97
2023-02-16T13:03:23.534Z,35.65
2023-02-16T13:05:58.250Z,36.95
2023-02-16T13:08:32.566Z,35.72
2023-02-16T13:11:07.159Z,36.92
2023-02-16T13:13:37.428Z,39.47
2023-02-16T13:16:20.712Z,39.38
2023-02-16T13:18:58.644Z,39.00
2023-02-16T13:21:52.026Z,38.08
2023-02-16T13:24:33.106Z,40.00
2023-02-16T13:27:14.804Z,37.22
2023-02-16T13:29:53.702Z,40.10
2023-02-16T13:32:51.297Z,42.20
2023-02-16T13:35:44.741Z,38.17
2023-02-16T13:38:33.652Z,41.08
2023-02-16T13:41:27.338Z,41.58
2023-02-16T13:43:57.604Z,42.30
2023-02-16T13:46:30.116Z,43.28
2023-02-16T13:48:59.690Z,39.50
2023-02-16T13:51:31.104Z,38.23
2023-02-16T13:54:01.904Z,41.50
2023-02-16T13:56:37.358Z,43.00
2023-02-16T13:59:56.696Z,42.47
2023-02-16T14:02:54.534Z,43.40
2023-02-16T14:05:38.703Z,42.97
2023-02-16T14:08:25.578Z,45.97
2023-02-16T14:11:09.815Z,43.65
2023-02-16T14:13:55.109Z,45.05
2023-02-16T14:16:34.320Z,45.17
2023-02-16T14:19:06.612Z,46.60
2023-02-16T14:21:40.880Z,46.08
2023-02-16T14:24:14.443Z,45.90
2023-02-16T14:26:55.411Z,44.67
2023-02-16T14:29:29.229Z,46.22
2023-02-16T14:32:02.220Z,47.20
2023-02-16T14:34:36.719Z,46.40
2023-02-16T14:37:35.849Z,46.47
2023-02-16T14:40:40.542Z,45.53
2023-02-16T14:43:28.774Z,47.80
2023-02-16T14:46:23.541Z,44.90
2023-02-16T14:49:21.740Z,43.55
2023-02-16T14:52:16.870Z,43.97
2023-02-16T14:55:15.348Z,43.47
2023-02-16T14:57:48.962Z,43.90
2023-02-16T15:00:23.175Z,44.40
2023-02-16T15:03:01.914Z,45.60
2023-02-16T15:05:33.023Z,43.97
2023-02-16T15:08:10.823Z,45.08
2023-02-16T15:10:40.674Z,45.70
2023-02-16T15:13:09.887Z,45.10
2023-02-16T15:15:46.077Z,44.53
2023-02-16T15:18:19.991Z,45.60
2023-02-16T15:20:51.212Z,44.60
2023-02-16T15:23:23.739Z,45.55
2023-02-16T15:25:59.659Z,45.40
2023-02-16T15:28:30.911Z,43.90
2023-02-16T15:31:01.908Z,45.78
2023-02-16T15:33:37.367Z,49.58
2023-02-16T15:36:10.811Z,46.38
2023-02-16T15:38:41.875Z,46.35
2023-02-16T15:41:16.024Z,49.80
2023-02-16T15:43:47.848Z,45.30
2023-02-16T15:46:26.717Z,48.33
2023-02-16T15:48:58.319Z,44.05
2023-02-16T15:51:31.545Z,48.72
2023-02-16T15:54:02.815Z,48.67
2023-02-16T15:56:39.559Z,51.40
2023-02-16T15:59:22.378Z,48.92
2023-02-16T16:01:53.894Z,49.67
2023-02-16T16:04:26.801Z,49.55
2023-02-16T16:06:55.815Z,48.15
2023-02-16T16:09:26.878Z,51.53
2023-02-16T16:11:59.021Z,50.13
2023-02-16T16:14:29.104Z,51.80
2023-02-16T16:16:57.926Z,51.85
2023-02-16T16:19:35.440Z,51.80
2023-02-16T16:22:06.976Z,50.53
2023-02-16T16:24:39.209Z,49.85
2023-02-16T16:27:11.057Z,51.30
2023-02-16T16:29:42.617Z,52.70
2023-02-16T16:32:21.405Z,51.47
2023-02-16T16:34:53.296Z,53.65
2023-02-16T16:37:29.410Z,53.25
2023-02-16T16:40:04.498Z,53.45
2023-02-16T16:42:34.947Z,54.20
2023-02-16T16:45:08.231Z,55.92
2023-02-16T16:47:39.628Z,54.15
2023-02-16T16:50:31.819Z,53.25
2023-02-16T16:53:01.482Z,55.13
2023-02-16T16:55:35.216Z,57.60
2023-02-16T16:58:08.113Z,56.70
2023-02-16T17:00:42.487Z,55.05
2023-02-16T17:03:16.492Z,57.78
2023-02-16T17:05:48.057Z,57.88
2023-02-16T17:08:17.549Z,56.15
2023-02-16T17:10:46.516Z,56.70
2023-02-16T17:13:17.796Z,56.13
2023-02-16T17:15:51.264Z,54.67
2023-02-16T17:18:22.390Z,55.58
2023-02-16T17:20:54.061Z,56.30
2023-02-16T17:23:24.294Z,58.53
2023-02-16T17:25:53.248Z,59.60
2023-02-16T17:28:22.635Z,56.37
2023-02-16T17:30:52.313Z,56.55
2023-02-16T17:33:22.174Z,58.97
2023-02-16T17:35:52.608Z,58.28
2023-02-16T17:38:23.362Z,56.97
2023-02-16T17:40:53.526Z,56.95
2023-02-16T17:43:23.495Z,57.15
2023-02-16T17:45:52.745Z,59.53
2023-02-16T17:48:26.462Z,57.30
2023-02-16T17:50:58.376Z,61.60
2023-02-16T17:53:28.126Z,62.75
2023-02-16T17:55:59.539Z,64.28
2023-02-16T17:58:29.426Z,65.50
2023-02-16T18:00:58.577Z,68.25
2023-02-16T18:03:27.610Z,69.78
2023-02-16T18:05:58.051Z,72.68
2023-02-16T18:11:02.014Z,75.55
2023-02-16T18:13:32.552Z,76.18
2023-02-16T18:16:04.242Z,81.60
2023-02-16T18:18:35.005Z,78.68
2023-02-16T18:21:06.176Z,80.10
2023-02-16T18:23:35.313Z,78.13
2023-02-16T18:26:05.117Z,72.45
2023-02-16T18:28:35.080Z,68.07
2023-02-16T18:31:07.485Z,69.47
2023-02-16T18:33:36.997Z,69.97
2023-02-16T18:36:08.437Z,67.15
2023-02-16T18:38:37.456Z,64.82
2023-02-16T18:41:06.700Z,61.47
2023-02-16T18:43:37.296Z,63.05
2023-02-16T18:46:07.599Z,65.95
2023-02-16T18:48:37.357Z,62.80
2023-02-16T18:51:08.908Z,56.35
2023-02-16T18:53:39.697Z,59.20
2023-02-16T18:56:10.566Z,62.97
2023-02-16T18:58:40.117Z,61.72
2023-02-16T19:01:17.486Z,60.00
2023-02-16T19:03:47.319Z,59.17
2023-02-16T19:06:18.577Z,59.08
2023-02-16T19:08:49.140Z,59.20
2023-02-16T19:11:18.957Z,58.05
2023-02-16T19:13:48.908Z,56.03
2023-02-16T19:16:19.333Z,55.72
2023-02-16T19:18:50.522Z,55.67
2023-02-16T19:21:21.606Z,52.15
2023-02-16T19:23:53.062Z,55.92
2023-02-16T19:26:23.328Z,51.92
2023-02-16T19:29:01.834Z,53.72
2023-02-16T19:31:38.133Z,51.63
2023-02-16T19:34:10.042Z,51.08
2023-02-16T19:36:42.967Z,51.95
2023-02-16T19:39:13.846Z,53.10
2023-02-16T19:41:45.439Z,50.03
2023-02-16T19:44:17.466Z,51.20
2023-02-16T19:46:47.639Z,48.58
2023-02-16T19:54:22.058Z,49.97
2023-02-16T19:56:54.681Z,48.53
2023-02-16T19:59:25.429Z,49.63
2023-02-16T20:01:56.299Z,53.25
2023-02-16T20:04:26.576Z,50.97
2023-02-16T20:06:58.497Z,49.28
2023-02-16T20:09:29.294Z,52.42
2023-02-16T20:12:01.477Z,51.78
2023-02-16T20:14:32.074Z,53.50
2023-02-16T20:17:01.759Z,51.13
2023-02-16T20:19:32.910Z,52.22
2023-02-16T20:22:04.486Z,51.10
2023-02-16T20:24:35.595Z,53.13
2023-02-16T20:27:06.243Z,51.15
2023-02-16T20:29:38.555Z,48.33
2023-02-16T20:32:09.751Z,54.08
2023-02-16T20:34:39.769Z,48.50
2023-02-16T20:37:10.632Z,52.83
2023-02-16T20:39:40.515Z,52.60
2023-02-16T20:42:11.564Z,54.55
2023-02-16T20:44:42.620Z,53.05
2023-02-16T20:47:12.670Z,51.08
2023-02-16T20:49:42.261Z,54.42
2023-02-16T20:52:14.412Z,50.53
2023-02-16T20:54:44.556Z,55.17
2023-02-16T20:57:26.119Z,51.80
2023-02-16T20:59:57.029Z,55.85
2023-02-16T21:02:26.442Z,54.03
2023-02-16T21:04:55.523Z,49.05
2023-02-16T21:07:26.067Z,53.77
2023-02-16T21:09:55.058Z,54.58
2023-02-16T21:12:23.967Z,55.47
2023-02-16T21:14:52.893Z,52.80
2023-02-16T21:17:22.577Z,55.03
2023-02-16T21:19:51.211Z,56.33
2023-02-16T21:22:20.249Z,54.50
2023-02-16T21:24:50.637Z,52.60
2023-02-16T21:29:48.368Z,56.55
2023-02-16T21:32:17.407Z,53.90
2023-02-16T21:34:46.580Z,55.50
2023-02-16T21:37:15.522Z,56.33
2023-02-16T21:40:10.811Z,56.33
2023-02-16T21:42:41.265Z,56.25
2023-02-16T21:45:13.706Z,54.05
2023-02-16T21:48:01.585Z,55.78
2023-02-16T21:50:31.253Z,55.83
2023-02-16T21:53:00.205Z,55.75
2023-02-16T21:55:46.304Z,58.75
2023-02-16T21:58:16.696Z,55.78
2023-02-16T22:00:45.968Z,56.75
2023-02-16T22:03:15.114Z,53.45
2023-02-16T22:05:44.092Z,54.97
2023-02-16T22:08:14.545Z,55.92
2023-02-16T22:10:43.206Z,57.05
2023-02-16T22:13:12.344Z,55.17
2023-02-16T22:15:42.781Z,60.00
2023-02-16T22:18:11.704Z,56.03
2023-02-16T22:20:40.710Z,55.47
2023-02-16T22:23:09.616Z,54.25
2023-02-16T22:25:40.571Z,55.13
2023-02-16T22:28:10.556Z,56.25
2023-02-16T22:33:12.662Z,54.78
2023-02-16T22:35:41.692Z,53.72
2023-02-16T22:38:10.777Z,52.78
2023-02-16T22:40:39.583Z,53.47
2023-02-16T22:43:08.677Z,52.75
2023-02-16T22:45:38.893Z,55.13
2023-02-16T22:50:38.052Z,53.92
2023-02-16T22:53:07.635Z,53.25
2023-02-16T22:55:37.122Z,50.45
2023-02-16T22:58:06.101Z,53.78
2023-02-16T23:00:35.204Z,54.20
2023-02-16T23:03:04.529Z,53.50
2023-02-16T23:05:33.420Z,53.63
2023-02-16T23:08:04.089Z,53.67
2023-02-16T23:13:05.088Z,52.63
2023-02-16T23:15:35.866Z,54.23
2023-02-16T23:18:05.436Z,51.70
2023-02-16T23:20:34.753Z,54.92
2023-02-16T23:23:05.264Z,56.20
2023-02-16T23:25:34.017Z,53.25
2023-02-16T23:28:04.855Z,56.55
2023-02-16T23:30:34.934Z,54.72
2023-02-16T23:33:04.020Z,53.95
2023-02-16T23:35:32.961Z,58.22
2023-02-16T23:38:03.709Z,50.08
2023-02-16T23:40:33.724Z,52.88
2023-02-16T23:43:02.707Z,54.08
2023-02-16T23:45:31.532Z,52.30
2023-02-16T23:48:00.561Z,55.97
2023-02-16T23:50:29.579Z,55.88
2023-02-16T23:52:59.618Z,52.30
2023-02-16T23:55:28.185Z,51.13
2023-02-16T23:57:58.496Z,55.38
